Time,TemperatureF,DewpointF,PressureIn,WindDirection,WindDirectionDegrees,WindSpeedMPH,WindSpeedGustMPH,Humidity,HourlyPrecipIn,Conditions,Clouds,dailyrainin,SolarRadiationWatts/m^2,SoftwareType,DateUTC
2013-06-09 00:00:00,59.0,48.0,-100.00,ESE,112,2.0,-999.0,66,-99.99,,,-99.99,0.000000,,2013-06-09 04:00:00,
2013-06-09 00:33:00,59.0,48.0,-100.00,ESE,112,2.0,-999.0,66,-99.99,,,-99.99,0.000000,,2013-06-09 04:33:00,
2013-06-09 00:43:00,59.0,48.0,-100.00,ESE,112,2.0,-999.0,66,-99.99,,,-99.99,0.000000,,2013-06-09 04:43:00,
2013-06-09 00:53:00,59.0,48.0,-100.00,ESE,112,2.0,-999.0,66,-99.99,,,-99.99,0.000000,,2013-06-09 04:53:00,
2013-06-09 01:00:00,58.0,51.0,-100.00,ENE,67,4.0,-999.0,77,-99.99,,,-99.99,0.000000,,2013-06-09 05:00:00,
2013-06-09 01:32:00,58.0,51.0,-100.00,ENE,67,4.0,-999.0,77,-99.99,,,-99.99,0.000000,,2013-06-09 05:32:00,
2013-06-09 01:42:00,58.0,51.0,-100.00,ENE,67,4.0,-999.0,77,-99.99,,,-99.99,0.000000,,2013-06-09 05:42:00,
2013-06-09 01:52:00,58.0,51.0,-100.00,ENE,67,4.0,-999.0,77,-99.99,,,-99.99,0.000000,,2013-06-09 05:52:00,
2013-06-09 02:00:00,57.0,51.0,-100.00,East,90,4.0,-999.0,79,-99.99,,,-99.99,0.000000,,2013-06-09 06:00:00,
2013-06-09 02:32:00,57.0,51.0,-100.00,East,90,4.0,-999.0,79,-99.99,,,-99.99,0.000000,,2013-06-09 06:32:00,
2013-06-09 02:42:00,57.0,51.0,-100.00,East,90,4.0,-999.0,79,-99.99,,,-99.99,0.000000,,2013-06-09 06:42:00,
2013-06-09 02:52:00,57.0,51.0,-100.00,East,90,4.0,-999.0,79,-99.99,,,-99.99,0.000000,,2013-06-09 06:52:00,
2013-06-09 03:00:00,56.0,51.0,-100.00,ENE,67,4.0,-999.0,82,-99.99,,,-99.99,0.000000,,2013-06-09 07:00:00,
2013-06-09 03:32:00,56.0,51.0,-100.00,ENE,67,4.0,-999.0,82,-99.99,,,-99.99,0.000000,,2013-06-09 07:32:00,
2013-06-09 03:42:00,56.0,51.0,-100.00,ENE,67,4.0,-999.0,82,-99.99,,,-99.99,0.000000,,2013-06-09 07:42:00,
2013-06-09 03:53:00,56.0,51.0,-100.00,ENE,67,4.0,-999.0,82,-99.99,,,-99.99,0.000000,,2013-06-09 07:53:00,
2013-06-09 04:00:00,56.0,51.0,-100.00,ENE,67,3.0,-999.0,82,-99.99,,,-99.99,0.000000,,2013-06-09 08:00:00,
2013-06-09 04:32:00,56.0,51.0,-100.00,ENE,67,3.0,-999.0,82,-99.99,,,-99.99,0.000000,,2013-06-09 08:32:00,
2013-06-09 04:42:00,56.0,51.0,-100.00,ENE,67,3.0,-999.0,82,-99.99,,,-99.99,0.000000,,2013-06-09 08:42:00,
2013-06-09 04:53:00,56.0,51.0,-100.00,ENE,67,3.0,-999.0,82,-99.99,,,-99.99,0.000000,,2013-06-09 08:53:00,
2013-06-09 05:00:00,56.0,51.0,-100.00,ENE,67,3.0,-999.0,83,-99.99,,,-99.99,0.000000,,2013-06-09 09:00:00,
2013-06-09 05:33:00,56.0,51.0,-100.00,ENE,67,3.0,-999.0,83,-99.99,,,-99.99,0.000000,,2013-06-09 09:33:00,
2013-06-09 05:43:00,56.0,51.0,-100.00,ENE,67,3.0,-999.0,83,-99.99,,,-99.99,0.000000,,2013-06-09 09:43:00,
2013-06-09 05:53:00,56.0,51.0,-100.00,ENE,67,3.0,-999.0,83,-99.99,,,-99.99,0.000000,,2013-06-09 09:53:00,
2013-06-09 06:00:00,56.0,51.0,-100.00,ENE,67,4.0,-999.0,82,-99.99,,,-99.99,0.000000,,2013-06-09 10:00:00,
2013-06-09 06:33:00,56.0,51.0,-100.00,ENE,67,4.0,-999.0,82,-99.99,,,-99.99,0.000000,,2013-06-09 10:33:00,
2013-06-09 06:43:00,56.0,51.0,-100.00,ENE,67,4.0,-999.0,82,-99.99,,,-99.99,0.000000,,2013-06-09 10:43:00,
2013-06-09 06:52:00,56.0,51.0,-100.00,ENE,67,4.0,-999.0,82,-99.99,,,-99.99,0.000000,,2013-06-09 10:52:00,
2013-06-09 07:00:00,57.0,51.0,-100.00,ESE,112,5.0,-999.0,81,-99.99,,,-99.99,26.680000,,2013-06-09 11:00:00,
2013-06-09 07:32:00,57.0,51.0,-100.00,ESE,112,5.0,-999.0,81,-99.99,,,-99.99,26.680000,,2013-06-09 11:32:00,
2013-06-09 07:42:00,57.0,51.0,-100.00,ESE,112,5.0,-999.0,81,-99.99,,,-99.99,26.680000,,2013-06-09 11:42:00,
2013-06-09 07:53:00,57.0,51.0,-100.00,ESE,112,5.0,-999.0,81,-99.99,,,-99.99,26.680000,,2013-06-09 11:53:00,
2013-06-09 08:00:00,59.0,53.0,-100.00,ESE,112,5.0,-999.0,78,-99.99,,,-99.99,110.199997,,2013-06-09 12:00:00,
2013-06-09 08:32:00,59.0,53.0,-100.00,ESE,112,5.0,-999.0,78,-99.99,,,-99.99,110.199997,,2013-06-09 12:32:00,
2013-06-09 08:42:00,59.0,53.0,-100.00,ESE,112,5.0,-999.0,78,-99.99,,,-99.99,110.199997,,2013-06-09 12:42:00,
2013-06-09 08:53:00,59.0,53.0,-100.00,ESE,112,5.0,-999.0,78,-99.99,,,-99.99,110.199997,,2013-06-09 12:53:00,
2013-06-09 09:00:00,61.0,54.0,-100.00,ESE,112,5.0,-999.0,77,-99.99,,,-99.99,157.759995,,2013-06-09 13:00:00,
2013-06-09 09:32:00,61.0,54.0,-100.00,ESE,112,5.0,-999.0,77,-99.99,,,-99.99,157.759995,,2013-06-09 13:32:00,
2013-06-09 09:42:00,61.0,54.0,-100.00,ESE,112,5.0,-999.0,77,-99.99,,,-99.99,157.759995,,2013-06-09 13:42:00,
2013-06-09 09:52:00,61.0,54.0,-100.00,ESE,112,5.0,-999.0,77,-99.99,,,-99.99,157.759995,,2013-06-09 13:52:00,
2013-06-09 10:00:00,65.0,56.0,-100.00,ESE,112,7.0,-999.0,72,-99.99,,,-99.99,457.040009,,2013-06-09 14:00:00,
2013-06-09 10:32:00,65.0,56.0,-100.00,ESE,112,7.0,-999.0,72,-99.99,,,-99.99,457.040009,,2013-06-09 14:32:00,
2013-06-09 10:43:00,65.0,56.0,-100.00,ESE,112,7.0,-999.0,72,-99.99,,,-99.99,457.040009,,2013-06-09 14:43:00,
2013-06-09 10:52:00,65.0,56.0,-100.00,ESE,112,7.0,-999.0,72,-99.99,,,-99.99,457.040009,,2013-06-09 14:52:00,
2013-06-09 11:00:00,70.0,58.0,-100.00,SE,135,6.0,-999.0,66,-99.99,,,-99.99,589.280029,,2013-06-09 15:00:00,
2013-06-09 11:33:00,70.0,58.0,-100.00,SE,135,6.0,-999.0,66,-99.99,,,-99.99,589.280029,,2013-06-09 15:33:00,
2013-06-09 11:44:00,70.0,58.0,-100.00,SE,135,6.0,-999.0,66,-99.99,,,-99.99,589.280029,,2013-06-09 15:44:00,
2013-06-09 11:53:00,70.0,58.0,-100.00,SE,135,6.0,-999.0,66,-99.99,,,-99.99,589.280029,,2013-06-09 15:53:00,
2013-06-09 12:00:00,74.0,59.0,-100.00,SE,135,7.0,-999.0,60,-99.99,,,-99.99,689.039978,,2013-06-09 16:00:00,
2013-06-09 12:33:00,74.0,59.0,-100.00,SE,135,7.0,-999.0,60,-99.99,,,-99.99,689.039978,,2013-06-09 16:33:00,
2013-06-09 12:43:00,74.0,59.0,-100.00,SE,135,7.0,-999.0,60,-99.99,,,-99.99,689.039978,,2013-06-09 16:43:00,
2013-06-09 12:53:00,74.0,59.0,-100.00,SE,135,7.0,-999.0,60,-99.99,,,-99.99,689.039978,,2013-06-09 16:53:00,
2013-06-09 13:00:00,75.0,59.0,-100.00,SE,135,6.0,-999.0,58,-99.99,,,-99.99,624.080017,,2013-06-09 17:00:00,
2013-06-09 13:32:00,75.0,59.0,-100.00,SE,135,6.0,-999.0,58,-99.99,,,-99.99,624.080017,,2013-06-09 17:32:00,
2013-06-09 13:42:00,75.0,59.0,-100.00,SE,135,6.0,-999.0,58,-99.99,,,-99.99,624.080017,,2013-06-09 17:42:00,
2013-06-09 13:52:00,75.0,59.0,-100.00,SE,135,6.0,-999.0,58,-99.99,,,-99.99,624.080017,,2013-06-09 17:52:00,
2013-06-09 15:00:00,76.0,57.0,-100.00,ESE,112,8.0,-999.0,52,-99.99,,,-99.99,373.519989,,2013-06-09 19:00:00,
2013-06-09 15:32:00,76.0,57.0,-100.00,ESE,112,8.0,-999.0,52,-99.99,,,-99.99,373.519989,,2013-06-09 19:32:00,
2013-06-09 15:43:00,76.0,57.0,-100.00,ESE,112,8.0,-999.0,52,-99.99,,,-99.99,373.519989,,2013-06-09 19:43:00,
2013-06-09 15:52:00,76.0,57.0,-100.00,ESE,112,8.0,-999.0,52,-99.99,,,-99.99,373.519989,,2013-06-09 19:52:00,
2013-06-09 16:00:00,76.0,57.0,-100.00,ESE,112,6.0,-999.0,53,-99.99,,,-99.99,336.399994,,2013-06-09 20:00:00,
2013-06-09 16:32:00,76.0,57.0,-100.00,ESE,112,6.0,-999.0,53,-99.99,,,-99.99,336.399994,,2013-06-09 20:32:00,
2013-06-09 16:42:00,76.0,57.0,-100.00,ESE,112,6.0,-999.0,53,-99.99,,,-99.99,336.399994,,2013-06-09 20:42:00,
2013-06-09 16:52:00,76.0,57.0,-100.00,ESE,112,6.0,-999.0,53,-99.99,,,-99.99,336.399994,,2013-06-09 20:52:00,
2013-06-09 17:00:00,77.0,58.0,-100.00,ESE,112,9.0,-999.0,51,-99.99,,,-99.99,458.200012,,2013-06-09 21:00:00,
2013-06-09 17:33:00,77.0,58.0,-100.00,ESE,112,9.0,-999.0,51,-99.99,,,-99.99,458.200012,,2013-06-09 21:33:00,
2013-06-09 17:44:00,77.0,58.0,-100.00,ESE,112,9.0,-999.0,51,-99.99,,,-99.99,458.200012,,2013-06-09 21:44:00,
2013-06-09 17:53:00,77.0,58.0,-100.00,ESE,112,9.0,-999.0,51,-99.99,,,-99.99,458.200012,,2013-06-09 21:53:00,
2013-06-09 18:00:00,76.0,59.0,-100.00,ESE,112,10.0,-999.0,54,-99.99,,,-99.99,381.640015,,2013-06-09 22:00:00,
2013-06-09 18:33:00,76.0,59.0,-100.00,ESE,112,10.0,-999.0,54,-99.99,,,-99.99,381.640015,,2013-06-09 22:33:00,
2013-06-09 18:42:00,76.0,59.0,-100.00,ESE,112,10.0,-999.0,54,-99.99,,,-99.99,381.640015,,2013-06-09 22:42:00,
2013-06-09 18:52:00,76.0,59.0,-100.00,ESE,112,10.0,-999.0,54,-99.99,,,-99.99,381.640015,,2013-06-09 22:52:00,
2013-06-09 19:00:00,75.0,58.0,-100.00,ESE,112,10.0,-999.0,54,-99.99,,,-99.99,221.559998,,2013-06-09 23:00:00,
2013-06-09 19:32:00,75.0,58.0,-100.00,ESE,112,10.0,-999.0,54,-99.99,,,-99.99,221.559998,,2013-06-09 23:32:00,
2013-06-09 19:43:00,75.0,58.0,-100.00,ESE,112,10.0,-999.0,54,-99.99,,,-99.99,221.559998,,2013-06-09 23:43:00,
2013-06-09 19:52:00,75.0,58.0,-100.00,ESE,112,10.0,-999.0,54,-99.99,,,-99.99,221.559998,,2013-06-09 23:52:00,
2013-06-09 20:00:00,72.0,57.0,-100.00,ESE,112,9.0,-999.0,58,-99.99,,,-99.99,60.320000,,2013-06-10 00:00:00,
2013-06-09 20:32:00,72.0,57.0,-100.00,ESE,112,9.0,-999.0,58,-99.99,,,-99.99,60.320000,,2013-06-10 00:32:00,
2013-06-09 20:42:00,72.0,57.0,-100.00,ESE,112,9.0,-999.0,58,-99.99,,,-99.99,60.320000,,2013-06-10 00:42:00,
2013-06-09 20:52:00,72.0,57.0,-100.00,ESE,112,9.0,-999.0,58,-99.99,,,-99.99,60.320000,,2013-06-10 00:52:00,
2013-06-09 21:00:00,70.0,58.0,-100.00,SE,135,5.0,-999.0,65,-99.99,,,-99.99,9.280000,,2013-06-10 01:00:00,
2013-06-09 21:32:00,70.0,58.0,-100.00,SE,135,5.0,-999.0,65,-99.99,,,-99.99,9.280000,,2013-06-10 01:32:00,
2013-06-09 21:43:00,70.0,58.0,-100.00,SE,135,5.0,-999.0,65,-99.99,,,-99.99,9.280000,,2013-06-10 01:43:00,
2013-06-09 21:52:00,70.0,58.0,-100.00,SE,135,5.0,-999.0,65,-99.99,,,-99.99,9.280000,,2013-06-10 01:52:00,
2013-06-09 22:00:00,69.0,57.0,-100.00,ESE,112,6.0,-999.0,64,-99.99,,,-99.99,0.000000,,2013-06-10 02:00:00,
2013-06-09 22:32:00,69.0,57.0,-100.00,ESE,112,6.0,-999.0,64,-99.99,,,-99.99,0.000000,,2013-06-10 02:32:00,
2013-06-09 22:42:00,69.0,57.0,-100.00,ESE,112,6.0,-999.0,64,-99.99,,,-99.99,0.000000,,2013-06-10 02:42:00,
2013-06-09 22:52:00,69.0,57.0,-100.00,ESE,112,6.0,-999.0,64,-99.99,,,-99.99,0.000000,,2013-06-10 02:52:00,
2013-06-09 23:00:00,68.0,54.0,-100.00,East,90,6.0,-999.0,61,-99.99,,,-99.99,0.000000,,2013-06-10 03:00:00,
2013-06-09 23:33:00,68.0,54.0,-100.00,East,90,6.0,-999.0,61,-99.99,,,-99.99,0.000000,,2013-06-10 03:33:00,
2013-06-09 23:43:00,68.0,54.0,-100.00,East,90,6.0,-999.0,61,-99.99,,,-99.99,0.000000,,2013-06-10 03:43:00,
2013-06-09 23:53:00,68.0,54.0,-100.00,East,90,6.0,-999.0,61,-99.99,,,-99.99,0.000000,,2013-06-10 03:53:00,